createdAt,value
2023-04-29T00:02:55.958Z,11.90
2023-04-29T00:06:58.784Z,11.84
2023-04-29T00:11:01.654Z,11.83
2023-04-29T00:15:04.792Z,11.89
2023-04-29T00:19:07.570Z,11.99
2023-04-29T00:23:10.415Z,11.98
2023-04-29T00:27:13.392Z,11.95
2023-04-29T00:31:16.500Z,11.97
2023-04-29T00:35:19.613Z,12.02
2023-04-29T00:39:22.386Z,12.03
2023-04-29T00:43:25.295Z,12.08
2023-04-29T00:47:28.366Z,12.12
2023-04-29T00:51:31.206Z,12.10
2023-04-29T00:55:34.280Z,12.06
2023-04-29T00:59:37.965Z,12.03
2023-04-29T01:03:41.884Z,12.00
2023-04-29T01:07:54.004Z,12.00
2023-04-29T01:12:11.109Z,11.96
2023-04-29T01:16:21.770Z,11.98
2023-04-29T01:20:26.195Z,12.01
2023-04-29T01:24:29.235Z,12.02
2023-04-29T01:28:34.994Z,11.98
2023-04-29T01:32:37.870Z,11.92
2023-04-29T01:37:05.545Z,11.90
2023-04-29T01:41:11.033Z,11.92
2023-04-29T01:45:17.190Z,12.00
2023-04-29T01:49:20.783Z,12.07
2023-04-29T01:53:23.651Z,12.10
2023-04-29T01:57:26.650Z,12.10
2023-04-29T02:01:29.587Z,12.07
2023-04-29T02:05:34.296Z,12.05
2023-04-29T02:09:37.529Z,11.99
2023-04-29T02:13:40.803Z,11.98
2023-04-29T02:17:43.630Z,12.01
2023-04-29T02:21:46.598Z,11.98
2023-04-29T02:25:49.398Z,11.87
2023-04-29T02:29:52.349Z,11.87
2023-04-29T02:33:55.762Z,11.91
2023-04-29T02:37:58.813Z,11.95
2023-04-29T02:42:01.833Z,11.98
2023-04-29T02:46:05.225Z,11.98
2023-04-29T02:50:08.311Z,11.95
2023-04-29T02:54:11.963Z,11.99
2023-04-29T02:58:14.932Z,12.06
2023-04-29T03:02:17.815Z,12.08
2023-04-29T03:06:21.048Z,12.16
2023-04-29T03:10:23.904Z,12.24
2023-04-29T03:14:26.943Z,12.30
2023-04-29T03:18:29.965Z,12.32
2023-04-29T03:22:32.928Z,12.21
2023-04-29T03:26:35.818Z,12.09
2023-04-29T03:30:38.951Z,12.01
2023-04-29T03:34:42.237Z,11.97
2023-04-29T03:38:51.995Z,11.93
2023-04-29T03:42:55.277Z,11.92
2023-04-29T03:46:58.194Z,11.93
2023-04-29T03:51:01.170Z,11.97
2023-04-29T03:55:04.286Z,12.09
2023-04-29T03:59:07.643Z,12.24
2023-04-29T04:03:10.654Z,12.25
2023-04-29T04:07:13.557Z,12.20
2023-04-29T04:11:16.546Z,12.19
2023-04-29T04:15:19.424Z,12.26
2023-04-29T04:19:22.268Z,12.32
2023-04-29T04:23:25.167Z,12.39
2023-04-29T04:27:28.390Z,12.46
2023-04-29T04:31:31.416Z,12.53
2023-04-29T04:35:34.332Z,12.52
2023-04-29T04:39:37.340Z,12.51
2023-04-29T04:43:41.540Z,12.51
2023-04-29T04:47:44.568Z,12.45
2023-04-29T04:51:47.464Z,12.38
2023-04-29T04:55:50.374Z,12.51
2023-04-29T04:59:53.338Z,12.69
2023-04-29T05:03:56.453Z,12.89
2023-04-29T05:07:59.293Z,13.12
2023-04-29T05:12:02.134Z,13.29
2023-04-29T05:16:06.661Z,13.33
2023-04-29T05:20:09.837Z,13.40
2023-04-29T05:24:12.689Z,13.48
2023-04-29T05:28:15.616Z,13.50
2023-04-29T05:32:18.488Z,13.57
2023-04-29T05:36:25.556Z,13.62
2023-04-29T05:40:28.465Z,13.60
2023-04-29T05:44:31.218Z,13.55
2023-04-29T05:48:34.033Z,13.53
2023-04-29T05:52:36.854Z,13.49
2023-04-29T05:56:39.769Z,13.48
2023-04-29T06:00:43.939Z,13.45
2023-04-29T06:04:47.975Z,13.34
2023-04-29T06:08:50.863Z,13.27
2023-04-29T06:12:53.695Z,13.21
2023-04-29T06:16:57.273Z,13.18
2023-04-29T06:21:00.084Z,13.18
2023-04-29T06:25:02.873Z,13.20
2023-04-29T06:29:25.500Z,13.27
2023-04-29T06:33:30.519Z,13.28
2023-04-29T06:41:37.348Z,13.51
2023-04-29T06:46:05.514Z,13.57
2023-04-29T06:55:03.916Z,13.49
2023-04-29T06:59:07.919Z,13.46
2023-04-29T07:03:11.461Z,13.43
2023-04-29T07:07:43.487Z,13.41
2023-04-29T07:11:46.119Z,13.35
2023-04-29T07:15:48.744Z,13.29
2023-04-29T07:19:51.671Z,13.19
2023-04-29T07:23:55.578Z,13.14
2023-04-29T07:28:01.971Z,13.27
2023-04-29T07:32:04.710Z,13.32
2023-04-29T07:36:07.572Z,13.44
2023-04-29T07:40:10.324Z,13.45
2023-04-29T07:44:13.018Z,13.48
2023-04-29T07:48:17.102Z,13.60
2023-04-29T07:52:19.766Z,13.76
2023-04-29T07:56:37.470Z,13.98
2023-04-29T08:00:40.292Z,14.42
2023-04-29T08:04:54.918Z,15.06
2023-04-29T08:08:57.958Z,15.68
2023-04-29T08:13:08.327Z,16.08
2023-04-29T08:17:11.325Z,16.51
2023-04-29T08:21:14.294Z,16.75
2023-04-29T08:25:17.729Z,16.67
2023-04-29T08:29:20.636Z,16.65
2023-04-29T08:33:23.370Z,16.61
2023-04-29T08:37:26.101Z,16.67
2023-04-29T08:41:28.975Z,16.82
2023-04-29T08:45:33.980Z,16.89
2023-04-29T08:49:38.305Z,17.11
2023-04-29T08:53:41.194Z,17.49
2023-04-29T08:57:44.834Z,17.78
2023-04-29T09:01:51.965Z,17.93
2023-04-29T09:05:56.224Z,18.00
2023-04-29T09:10:04.847Z,18.05
2023-04-29T09:14:09.420Z,18.08
2023-04-29T09:18:12.050Z,18.04
2023-04-29T09:22:14.949Z,17.99
2023-04-29T09:26:18.811Z,17.98
2023-04-29T09:30:22.474Z,17.87
2023-04-29T09:34:37.529Z,17.83
2023-04-29T09:38:54.114Z,17.90
2023-04-29T09:42:57.818Z,18.03
2023-04-29T09:47:03.310Z,18.14
2023-04-29T09:51:07.358Z,18.20
2023-04-29T09:55:11.069Z,18.29
2023-04-29T09:59:14.490Z,18.43
2023-04-29T10:03:17.950Z,18.64
2023-04-29T10:07:21.463Z,18.92
2023-04-29T10:11:25.249Z,19.11
2023-04-29T10:15:37.171Z,19.33
2023-04-29T10:20:05.994Z,19.18
2023-04-29T10:24:11.284Z,18.54
2023-04-29T10:28:17.112Z,18.04
2023-04-29T10:32:22.310Z,17.84
2023-04-29T10:36:26.392Z,17.90
2023-04-29T10:40:37.007Z,17.93
2023-04-29T10:44:59.101Z,18.06
2023-04-29T10:49:03.779Z,18.37
2023-04-29T10:53:06.977Z,18.43
2023-04-29T10:57:20.547Z,18.64
2023-04-29T11:01:40.504Z,18.57
2023-04-29T11:05:46.169Z,18.09
2023-04-29T11:10:14.704Z,17.56
2023-04-29T11:14:22.529Z,17.14
2023-04-29T11:18:25.937Z,16.89
2023-04-29T11:22:34.060Z,16.93
2023-04-29T11:45:50.933Z,18.39
2023-04-29T11:50:04.982Z,18.62
2023-04-29T11:54:08.919Z,18.79
2023-04-29T11:58:11.596Z,19.03
2023-04-29T12:02:14.617Z,19.25
2023-04-29T12:06:17.217Z,19.43
2023-04-29T12:10:18.951Z,19.37
2023-04-29T12:14:37.009Z,19.00
2023-04-29T12:18:44.855Z,18.67
2023-04-29T12:23:22.278Z,18.49
2023-04-29T12:27:35.647Z,18.45
2023-04-29T12:31:47.617Z,18.42
2023-04-29T12:36:02.560Z,18.45
2023-04-29T12:40:23.346Z,18.40
2023-04-29T12:44:45.284Z,18.46
2023-04-29T12:49:02.454Z,18.37
2023-04-29T12:53:17.152Z,18.05
2023-04-29T12:57:45.012Z,17.86
2023-04-29T13:01:53.630Z,17.66
2023-04-29T13:06:06.841Z,17.90
2023-04-29T13:10:20.562Z,18.22
2023-04-29T13:14:25.943Z,18.30
2023-04-29T13:18:36.756Z,18.43
2023-04-29T13:22:48.078Z,18.73
2023-04-29T13:26:55.853Z,18.67
2023-04-29T13:36:46.716Z,18.01
2023-04-29T13:40:51.460Z,18.03
2023-04-29T13:45:00.229Z,18.47
2023-04-29T13:49:29.353Z,18.77
2023-04-29T13:54:01.798Z,19.19
2023-04-29T14:02:23.078Z,19.54
2023-04-29T14:06:17.743Z,19.40
2023-04-29T14:10:32.790Z,19.07
2023-04-29T14:14:35.406Z,18.57
2023-04-29T14:18:36.936Z,18.00
2023-04-29T14:22:38.802Z,16.95
2023-04-29T14:26:41.232Z,16.19
2023-04-29T14:30:46.160Z,15.62
2023-04-29T14:34:48.943Z,15.50
2023-04-29T14:38:50.893Z,15.37
2023-04-29T14:42:53.216Z,15.39
2023-04-29T14:46:54.875Z,15.31
2023-04-29T14:50:56.895Z,15.23
2023-04-29T14:54:59.891Z,15.19
2023-04-29T14:59:01.686Z,15.23
2023-04-29T15:03:10.331Z,15.29
2023-04-29T15:07:26.039Z,15.27
2023-04-29T15:11:30.405Z,15.28
2023-04-29T15:15:32.012Z,15.22
2023-04-29T15:19:44.350Z,15.15
2023-04-29T15:23:45.861Z,15.14
2023-04-29T15:27:47.403Z,15.05
2023-04-29T15:31:49.400Z,14.99
2023-04-29T15:35:51.032Z,14.97
2023-04-29T15:39:53.077Z,14.97
2023-04-29T15:43:58.265Z,14.93
2023-04-29T15:48:00.210Z,14.92
2023-04-29T15:52:04.062Z,15.03
2023-04-29T15:56:05.698Z,15.04
2023-04-29T16:00:08.385Z,15.04
2023-04-29T16:04:50.510Z,14.96
2023-04-29T16:08:54.335Z,14.93
2023-04-29T16:12:56.114Z,14.78
2023-04-29T16:17:07.623Z,14.80
2023-04-29T16:21:09.408Z,14.75
2023-04-29T16:25:12.866Z,14.67
2023-04-29T16:29:14.659Z,14.59
2023-04-29T16:33:16.190Z,14.30
2023-04-29T16:37:17.617Z,14.13
2023-04-29T16:41:19.320Z,14.04
2023-04-29T16:45:23.636Z,13.88
2023-04-29T16:49:26.079Z,13.72
2023-04-29T16:53:27.926Z,13.54
2023-04-29T16:57:29.810Z,13.43
2023-04-29T17:06:15.491Z,13.26
2023-04-29T17:10:17.696Z,13.13
2023-04-29T17:14:19.568Z,13.04
2023-04-29T17:18:21.495Z,12.87
2023-04-29T17:22:23.443Z,12.72
2023-04-29T17:26:25.396Z,12.64
2023-04-29T17:30:27.416Z,12.53
2023-04-29T17:34:30.500Z,12.49
2023-04-29T17:38:35.650Z,12.43
2023-04-29T17:42:37.723Z,12.34
2023-04-29T17:46:40.052Z,12.30
2023-04-29T17:50:42.045Z,12.31
2023-04-29T17:54:43.798Z,12.30
2023-04-29T17:58:45.621Z,12.33
2023-04-29T18:02:47.475Z,12.42
2023-04-29T18:06:49.274Z,12.44
2023-04-29T18:10:51.267Z,12.43
2023-04-29T18:14:53.259Z,12.47
2023-04-29T18:18:56.888Z,12.47
2023-04-29T18:22:59.083Z,12.54
2023-04-29T18:27:01.710Z,12.52
2023-04-29T18:31:03.478Z,12.58
2023-04-29T18:35:05.919Z,12.55
2023-04-29T18:39:07.857Z,12.50
2023-04-29T18:43:11.250Z,12.46
2023-04-29T18:47:12.978Z,12.44
2023-04-29T18:51:14.590Z,12.45
2023-04-29T18:55:16.498Z,12.44
2023-04-29T18:59:21.058Z,12.30
2023-04-29T19:03:22.971Z,12.25
2023-04-29T19:07:24.834Z,12.22
2023-04-29T19:11:26.743Z,12.23
2023-04-29T19:15:32.065Z,12.22
2023-04-29T19:19:34.003Z,12.26
2023-04-29T19:23:36.132Z,12.23
2023-04-29T19:27:44.435Z,12.24
2023-04-29T19:31:46.876Z,12.22
2023-04-29T19:35:48.856Z,12.26
2023-04-29T19:39:51.600Z,12.31
2023-04-29T19:43:54.756Z,12.31
2023-04-29T19:47:58.973Z,12.28
2023-04-29T19:52:02.969Z,12.25
2023-04-29T19:56:05.010Z,12.28
2023-04-29T20:00:08.911Z,12.26
2023-04-29T20:04:12.577Z,12.25
2023-04-29T20:08:15.929Z,12.21
2023-04-29T20:12:18.007Z,12.23
2023-04-29T20:16:23.095Z,12.18
2023-04-29T20:20:25.579Z,12.11
2023-04-29T20:24:27.343Z,12.12
2023-04-29T20:28:31.273Z,12.11
2023-04-29T20:32:33.197Z,12.08
2023-04-29T20:36:35.580Z,12.07
2023-04-29T20:40:37.232Z,12.08
2023-04-29T20:44:39.013Z,12.07
2023-04-29T20:48:40.847Z,12.03
2023-04-29T20:52:43.952Z,12.00
2023-04-29T20:56:46.373Z,11.95
2023-04-29T21:00:48.197Z,11.87
2023-04-29T21:04:50.560Z,11.81
2023-04-29T21:08:52.858Z,11.80
2023-04-29T21:12:54.665Z,11.79
2023-04-29T21:16:57.077Z,11.77
2023-04-29T21:21:00.278Z,11.70
2023-04-29T21:25:04.611Z,11.75
2023-04-29T21:29:07.458Z,11.77
2023-04-29T21:33:09.999Z,11.80
2023-04-29T21:37:14.732Z,11.75
2023-04-29T21:41:22.756Z,11.72
2023-04-29T21:45:24.961Z,11.72
2023-04-29T21:49:27.817Z,11.68
2023-04-29T21:53:29.591Z,11.61
2023-04-29T21:57:43.553Z,11.61
2023-04-29T22:01:48.286Z,11.59
2023-04-29T22:05:50.561Z,11.64
2023-04-29T22:09:52.718Z,11.64
2023-04-29T22:13:56.166Z,11.66
2023-04-29T22:17:58.710Z,11.55
2023-04-29T22:22:02.409Z,11.50
2023-04-29T22:26:04.536Z,11.40
2023-04-29T22:30:08.427Z,11.26
2023-04-29T22:34:12.131Z,11.21
2023-04-29T22:38:14.526Z,11.22
2023-04-29T22:42:17.648Z,11.16
2023-04-29T22:46:19.518Z,11.14
2023-04-29T22:50:21.402Z,11.07
2023-04-29T22:54:23.980Z,11.00
2023-04-29T22:58:26.205Z,10.88
2023-04-29T23:02:30.043Z,10.82
2023-04-29T23:06:35.236Z,10.82
2023-04-29T23:10:41.128Z,10.82
2023-04-29T23:14:44.964Z,10.80
2023-04-29T23:18:47.294Z,10.85
2023-04-29T23:22:51.665Z,10.85
2023-04-29T23:26:53.378Z,10.87
2023-04-29T23:30:55.243Z,10.84
2023-04-29T23:34:57.865Z,10.84
2023-04-29T23:39:00.676Z,10.88
2023-04-29T23:43:02.737Z,10.93
2023-04-29T23:47:05.400Z,10.98
2023-04-29T23:51:07.614Z,11.04
2023-04-29T23:55:11.016Z,11.03
2023-04-29T23:59:13.084Z,11.01
